Time;durP1;ratioP1;P1;durP2;ratioP2;P2;SDS_P1;SDS_P2;PMS_P1;PMS_P2;Temp;Humidity;BMP_temperature;BMP_pressure;BME280_temperature;BME280_humidity;BME280_pressure;Samples;Min_cycle;Max_cycle;Signal;HPM_P1;HPM_P2
2022/02/20 00:01:45;;;;;;;5.88;1.88;;;2.60;95.20;;;;;;5066404;28;20035;-84
2022/02/20 00:04:10;;;;;;;3.53;1.52;;;2.60;95.20;;;;;;5062426;28;20071;-83
2022/02/20 00:06:36;;;;;;;4.80;1.83;;;2.60;95.20;;;;;;5062582;28;20028;-83
2022/02/20 00:09:02;;;;;;;3.55;1.55;;;2.50;95.20;;;;;;5052939;28;20032;-83
2022/02/20 00:11:27;;;;;;;5.35;1.77;;;2.50;95.20;;;;;;5062915;28;20025;-83
2022/02/20 00:13:53;;;;;;;4.53;1.52;;;2.50;95.20;;;;;;5066301;28;20029;-84
2022/02/20 00:16:18;;;;;;;5.18;2.13;;;2.50;95.20;;;;;;5069162;28;20186;-84
2022/02/20 00:18:45;;;;;;;3.88;1.60;;;2.50;95.30;;;;;;5080171;28;20032;-84
2022/02/20 00:21:10;;;;;;;5.50;1.85;;;2.50;95.30;;;;;;5062371;28;20194;-83
2022/02/20 00:23:36;;;;;;;3.92;1.77;;;2.50;95.30;;;;;;5068602;28;20028;-84
2022/02/20 00:26:01;;;;;;;3.88;1.73;;;2.50;95.40;;;;;;5068374;28;20028;-84
2022/02/20 00:28:27;;;;;;;7.40;1.85;;;2.50;95.40;;;;;;5066416;28;20476;-84
2022/02/20 00:30:52;;;;;;;5.13;1.88;;;2.50;95.40;;;;;;5066448;28;20056;-84
2022/02/20 00:33:18;;;;;;;5.43;1.90;;;2.50;95.40;;;;;;5061272;28;20380;-83
2022/02/20 00:35:44;;;;;;;5.50;1.80;;;2.50;95.40;;;;;;5068828;28;20032;-84
2022/02/20 00:38:11;;;;;;;4.22;2.17;;;2.60;95.50;;;;;;5068210;28;20086;-84
2022/02/20 00:40:38;;;;;;;4.03;1.70;;;2.60;95.50;;;;;;5067772;28;20025;-84
2022/02/20 00:43:04;;;;;;;5.00;2.05;;;2.60;95.50;;;;;;5067795;28;20031;-84
2022/02/20 00:45:30;;;;;;;4.60;2.30;;;2.60;95.50;;;;;;5069279;28;20032;-84
2022/02/20 00:47:56;;;;;;;6.10;2.00;;;2.60;95.60;;;;;;5066595;28;20102;-84
2022/02/20 00:50:22;;;;;;;7.43;2.03;;;2.60;95.60;;;;;;5066918;28;20028;-84
2022/02/20 00:52:48;;;;;;;4.65;2.35;;;2.60;95.60;;;;;;5072627;28;20488;-84
2022/02/20 00:55:14;;;;;;;5.05;2.20;;;2.60;95.60;;;;;;5076753;28;20060;-83
2022/02/20 00:57:39;;;;;;;4.45;2.28;;;2.60;95.70;;;;;;5066889;28;20525;-83
2022/02/20 01:00:09;;;;;;;5.97;2.50;;;2.60;95.70;;;;;;5058242;28;20044;-83
2022/02/20 01:02:34;;;;;;;4.93;2.40;;;2.70;95.70;;;;;;5056892;28;20032;-83
2022/02/20 01:05:00;;;;;;;6.00;2.38;;;2.60;95.70;;;;;;5073615;28;20047;-83
2022/02/20 01:07:26;;;;;;;6.43;2.63;;;2.70;95.80;;;;;;5067462;28;20032;-83
2022/02/20 01:09:51;;;;;;;6.65;2.63;;;2.70;95.80;;;;;;5070276;28;20025;-83
2022/02/20 01:12:17;;;;;;;5.85;2.92;;;2.70;95.80;;;;;;5069816;28;20103;-83
2022/02/20 01:14:44;;;;;;;6.97;2.88;;;2.70;95.90;;;;;;5067755;28;20021;-83
2022/02/20 01:17:10;;;;;;;7.57;2.65;;;2.70;96.00;;;;;;5062954;28;20569;-83
2022/02/20 01:19:36;;;;;;;6.95;3.17;;;2.70;96.00;;;;;;5061523;28;20108;-84
2022/02/20 01:22:01;;;;;;;9.05;3.10;;;2.80;96.00;;;;;;5068249;28;20451;-84
2022/02/20 01:24:27;;;;;;;5.70;2.92;;;2.80;96.10;;;;;;5067975;28;20424;-84
2022/02/20 01:26:52;;;;;;;7.55;3.38;;;2.80;96.10;;;;;;5067176;28;20032;-84
2022/02/20 01:29:18;;;;;;;8.48;3.40;;;2.80;96.10;;;;;;5059305;28;20072;-84
2022/02/20 01:31:44;;;;;;;4.88;2.58;;;2.80;96.10;;;;;;5064396;28;20033;-83
2022/02/20 01:34:09;;;;;;;7.80;3.50;;;2.80;96.20;;;;;;5064877;28;20025;-83
2022/02/20 01:36:35;;;;;;;6.45;3.30;;;2.80;96.20;;;;;;5068526;28;20024;-83
2022/02/20 01:39:00;;;;;;;7.45;3.63;;;2.80;96.30;;;;;;5073017;28;20202;-83
2022/02/20 01:41:26;;;;;;;8.50;3.83;;;2.90;96.30;;;;;;5073382;28;20036;-83
2022/02/20 01:43:54;;;;;;;4.45;3.38;;;2.90;96.30;;;;;;5077119;28;20032;-83
2022/02/20 01:46:21;;;;;;;7.65;4.22;;;2.90;96.30;;;;;;5070815;28;20029;-83
2022/02/20 01:48:48;;;;;;;8.23;4.45;;;2.90;96.30;;;;;;5069849;28;20070;-83
2022/02/20 01:51:16;;;;;;;8.73;4.40;;;2.90;96.30;;;;;;5071795;28;20017;-83
2022/02/20 01:53:42;;;;;;;8.15;4.25;;;2.90;96.40;;;;;;5070661;28;20480;-83
2022/02/20 01:56:08;;;;;;;7.40;4.65;;;2.90;96.30;;;;;;5068964;28;20021;-83
2022/02/20 01:58:34;;;;;;;9.40;4.85;;;2.90;96.30;;;;;;5071571;28;20021;-83
2022/02/20 02:01:00;;;;;;;9.48;4.60;;;2.90;96.30;;;;;;5072195;28;20032;-83
2022/02/20 02:03:26;;;;;;;6.57;4.82;;;2.90;96.40;;;;;;5069392;28;20033;-83
2022/02/20 02:05:52;;;;;;;6.85;4.85;;;3.00;96.40;;;;;;5070571;28;20162;-83
2022/02/20 02:08:18;;;;;;;6.93;4.70;;;3.00;96.40;;;;;;5067395;28;20396;-83
2022/02/20 02:10:45;;;;;;;7.38;5.00;;;2.90;96.30;;;;;;5069423;28;20052;-83
2022/02/20 02:13:10;;;;;;;10.00;5.72;;;2.90;96.40;;;;;;5072163;28;20488;-83
2022/02/20 02:15:50;;;;;;;9.70;5.60;;;2.90;96.40;;;;;;5069896;28;20041;-83
2022/02/20 02:18:16;;;;;;;10.82;5.85;;;2.90;96.40;;;;;;5070239;28;20381;-83
2022/02/20 02:20:41;;;;;;;8.52;5.47;;;2.90;96.40;;;;;;5071149;28;20039;-83
2022/02/20 02:23:07;;;;;;;9.93;6.15;;;2.90;96.40;;;;;;5071790;28;20033;-83
2022/02/20 02:25:33;;;;;;;7.88;5.75;;;2.90;96.40;;;;;;5068649;28;20434;-83
2022/02/20 02:27:59;;;;;;;11.93;6.82;;;2.90;96.40;;;;;;5071965;28;20032;-83
2022/02/20 02:30:24;;;;;;;11.90;6.50;;;2.80;96.30;;;;;;5071926;28;20093;-83
2022/02/20 02:32:50;;;;;;;13.05;7.10;;;2.80;96.30;;;;;;5065721;28;20485;-83
2022/02/20 02:35:15;;;;;;;13.35;7.25;;;2.80;96.40;;;;;;5071373;28;20044;-83
2022/02/20 02:37:41;;;;;;;9.63;6.65;;;2.70;96.30;;;;;;5072202;28;20484;-83
2022/02/20 02:40:07;;;;;;;14.52;7.32;;;2.70;96.30;;;;;;5072183;28;20123;-83
2022/02/20 02:42:33;;;;;;;10.10;7.05;;;2.70;96.30;;;;;;5069922;28;20021;-83
2022/02/20 02:44:58;;;;;;;12.18;7.85;;;2.70;96.30;;;;;;5070900;28;20377;-83
2022/02/20 02:47:24;;;;;;;11.02;8.40;;;2.70;96.30;;;;;;5066801;28;20385;-83
2022/02/20 02:49:49;;;;;;;11.15;7.13;;;2.80;96.30;;;;;;5084166;28;20465;-83
2022/02/20 02:52:15;;;;;;;11.13;7.55;;;2.80;96.30;;;;;;5073000;28;20024;-83
2022/02/20 02:54:41;;;;;;;13.00;8.63;;;2.80;96.20;;;;;;5071035;28;20507;-84
2022/02/20 02:57:06;;;;;;;11.48;7.82;;;2.80;96.10;;;;;;5070476;28;20021;-83
2022/02/20 02:59:32;;;;;;;11.55;8.15;;;2.80;96.00;;;;;;5068820;28;20024;-83
2022/02/20 03:02:03;;;;;;;11.73;8.40;;;2.80;96.00;;;;;;5068144;28;20038;-83
2022/02/20 03:04:28;;;;;;;13.52;8.15;;;2.70;95.90;;;;;;5068533;28;20815;-83
2022/02/20 03:06:54;;;;;;;13.23;7.97;;;2.70;95.80;;;;;;5067887;28;20032;-83
2022/02/20 03:09:19;;;;;;;12.32;8.45;;;2.60;95.80;;;;;;5069229;28;20427;-83
2022/02/20 03:11:45;;;;;;;15.25;9.35;;;2.60;95.80;;;;;;5060670;28;20025;-83
2022/02/20 03:14:12;;;;;;;12.20;8.15;;;2.50;95.80;;;;;;5070864;28;20020;-83
2022/02/20 03:16:37;;;;;;;13.52;9.27;;;2.50;95.80;;;;;;5069051;28;20094;-83
2022/02/20 03:19:03;;;;;;;15.40;9.40;;;2.40;95.80;;;;;;5067775;28;20029;-83
2022/02/20 03:21:29;;;;;;;17.58;10.02;;;2.50;95.70;;;;;;5070868;28;20081;-83
2022/02/20 03:23:55;;;;;;;12.23;9.27;;;2.50;95.80;;;;;;5070739;28;20032;-83
2022/02/20 03:26:20;;;;;;;13.27;8.90;;;2.60;95.80;;;;;;5070749;28;20060;-84
2022/02/20 03:28:48;;;;;;;16.88;10.70;;;2.60;95.70;;;;;;5070098;28;20067;-84
2022/02/20 03:31:14;;;;;;;15.00;10.43;;;2.60;95.70;;;;;;5068443;28;20050;-84
2022/02/20 03:33:39;;;;;;;14.10;10.05;;;2.60;95.70;;;;;;5068269;28;20448;-84
2022/02/20 03:36:05;;;;;;;14.55;9.93;;;2.70;95.70;;;;;;5067055;28;20047;-84
2022/02/20 03:38:31;;;;;;;17.33;10.88;;;2.70;95.70;;;;;;5064867;28;20389;-84
2022/02/20 03:40:56;;;;;;;16.50;10.70;;;2.70;95.70;;;;;;5065574;28;20029;-84
2022/02/20 03:43:22;;;;;;;16.85;11.15;;;2.70;95.70;;;;;;5072616;28;20028;-84
2022/02/20 03:45:47;;;;;;;15.38;10.65;;;2.70;95.70;;;;;;5064445;28;20397;-84
2022/02/20 03:48:13;;;;;;;16.73;11.60;;;2.80;95.70;;;;;;5068374;28;20029;-84
2022/02/20 03:50:38;;;;;;;16.02;11.32;;;2.80;95.80;;;;;;5070595;28;20079;-83
2022/02/20 03:53:04;;;;;;;17.60;11.77;;;2.80;95.80;;;;;;5068298;28;20444;-81
2022/02/20 03:55:30;;;;;;;18.58;11.98;;;2.80;95.80;;;;;;5068288;28;20131;-83
2022/02/20 03:57:57;;;;;;;16.83;11.32;;;2.80;95.80;;;;;;5070991;28;20507;-83
2022/02/20 04:00:24;;;;;;;18.45;11.02;;;2.80;95.80;;;;;;5071555;28;20035;-84
2022/02/20 04:02:50;;;;;;;19.50;12.82;;;2.80;95.90;;;;;;5070140;28;20028;-84
2022/02/20 04:05:17;;;;;;;21.25;12.30;;;2.80;95.90;;;;;;5084001;28;20142;-84
2022/02/20 04:07:43;;;;;;;18.95;12.15;;;2.80;95.80;;;;;;5070027;28;20123;-83
2022/02/20 04:10:10;;;;;;;17.52;11.55;;;2.80;95.80;;;;;;5068775;28;20108;-83
2022/02/20 04:12:36;;;;;;;19.77;13.60;;;2.80;95.80;;;;;;5070099;28;20028;-83
2022/02/20 04:15:03;;;;;;;17.88;11.50;;;2.80;95.80;;;;;;5063520;28;20043;-83
2022/02/20 04:17:28;;;;;;;20.38;11.73;;;2.80;95.80;;;;;;5069772;28;20040;-83
2022/02/20 04:19:54;;;;;;;18.30;11.73;;;2.80;95.80;;;;;;5068549;28;20032;-84
2022/02/20 04:22:21;;;;;;;16.45;10.38;;;2.80;95.80;;;;;;5069630;28;20498;-84
2022/02/20 04:24:47;;;;;;;16.75;11.52;;;2.80;95.80;;;;;;5067810;28;20036;-84
2022/02/20 04:27:13;;;;;;;17.95;12.43;;;2.80;95.80;;;;;;5062772;28;20039;-84
2022/02/20 04:29:39;;;;;;;19.42;11.95;;;2.80;95.80;;;;;;5069573;28;20036;-83
2022/02/20 04:32:05;;;;;;;18.95;11.13;;;2.80;95.80;;;;;;5064490;28;20032;-83
2022/02/20 04:34:31;;;;;;;18.08;12.15;;;2.80;95.80;;;;;;5064599;28;20107;-83
2022/02/20 04:36:56;;;;;;;17.17;12.35;;;2.80;95.80;;;;;;5085312;28;20028;-83
2022/02/20 04:39:22;;;;;;;17.88;12.30;;;2.80;95.80;;;;;;5069155;28;20029;-83
2022/02/20 04:41:47;;;;;;;18.52;12.93;;;2.80;95.80;;;;;;5069418;28;20476;-83
2022/02/20 04:44:13;;;;;;;18.08;11.80;;;2.80;95.80;;;;;;5083974;28;20432;-84
2022/02/20 04:46:39;;;;;;;19.15;12.35;;;2.80;95.80;;;;;;5063335;28;20537;-84
2022/02/20 04:49:06;;;;;;;18.75;12.07;;;2.80;95.80;;;;;;5057121;28;20021;-83
2022/02/20 04:51:33;;;;;;;19.55;12.93;;;2.80;95.80;;;;;;5071681;28;20040;-83
2022/02/20 04:53:59;;;;;;;17.33;12.48;;;2.80;95.80;;;;;;5084980;28;20492;-83
2022/02/20 04:56:25;;;;;;;16.75;11.27;;;2.80;95.80;;;;;;5069397;28;20481;-84
2022/02/20 04:58:50;;;;;;;18.02;10.60;;;2.70;95.80;;;;;;5084961;28;20032;-84
2022/02/20 05:01:16;;;;;;;17.35;11.82;;;2.70;95.80;;;;;;5067824;28;20090;-84
2022/02/20 05:03:42;;;;;;;18.83;12.05;;;2.70;95.80;;;;;;5082440;28;20067;-84
2022/02/20 05:06:07;;;;;;;19.08;12.50;;;2.80;95.90;;;;;;5085785;28;20543;-84
2022/02/20 05:08:33;;;;;;;19.13;11.82;;;2.80;95.80;;;;;;5067749;28;20115;-84
2022/02/20 05:10:58;;;;;;;19.23;12.60;;;2.70;95.80;;;;;;5072458;28;20028;-84
2022/02/20 05:13:24;;;;;;;17.33;11.60;;;2.70;95.80;;;;;;5073202;28;20379;-83
2022/02/20 05:15:49;;;;;;;18.08;11.70;;;2.70;95.90;;;;;;5068704;28;20071;-83
2022/02/20 05:18:15;;;;;;;16.65;11.13;;;2.70;95.90;;;;;;5070029;28;20036;-83
2022/02/20 05:20:42;;;;;;;18.48;11.77;;;2.70;95.90;;;;;;5070226;28;20431;-84
2022/02/20 05:23:08;;;;;;;19.15;12.55;;;2.70;95.90;;;;;;5070920;28;20094;-83
2022/02/20 05:25:34;;;;;;;22.80;12.82;;;2.70;96.00;;;;;;5073615;28;20031;-83
2022/02/20 05:27:59;;;;;;;19.55;11.43;;;2.70;96.00;;;;;;5066100;28;20474;-83
2022/02/20 05:30:25;;;;;;;15.88;10.43;;;2.70;96.00;;;;;;5071573;28;20023;-83
2022/02/20 05:32:50;;;;;;;18.65;11.45;;;2.70;96.00;;;;;;5070863;28;20413;-83
2022/02/20 05:35:16;;;;;;;16.38;10.65;;;2.70;96.00;;;;;;5071882;28;20426;-83
2022/02/20 05:37:43;;;;;;;17.50;10.85;;;2.70;96.00;;;;;;5071860;28;20036;-83
2022/02/20 05:40:11;;;;;;;16.25;10.27;;;2.70;96.00;;;;;;5071433;28;20044;-83
2022/02/20 05:42:37;;;;;;;18.42;10.48;;;2.70;96.00;;;;;;5073334;28;20048;-83
2022/02/20 05:45:03;;;;;;;13.68;8.68;;;2.70;96.00;;;;;;5073367;28;20032;-83
2022/02/20 05:47:28;;;;;;;14.75;8.98;;;2.70;95.90;;;;;;5070739;28;20036;-83
2022/02/20 05:49:54;;;;;;;15.13;8.98;;;2.70;95.90;;;;;;5069985;28;20021;-83
2022/02/20 05:52:19;;;;;;;13.40;9.05;;;2.70;95.90;;;;;;5068763;28;20032;-83
2022/02/20 05:54:45;;;;;;;16.45;9.27;;;2.70;95.80;;;;;;5070926;28;20369;-83
2022/02/20 05:57:11;;;;;;;14.30;9.00;;;2.70;95.80;;;;;;5069709;28;20028;-83
2022/02/20 05:59:36;;;;;;;14.45;8.65;;;2.70;95.70;;;;;;5074847;28;20508;-83
2022/02/20 06:02:02;;;;;;;13.10;7.68;;;2.70;95.60;;;;;;5070734;28;20048;-83
2022/02/20 06:04:27;;;;;;;13.57;8.05;;;2.70;95.60;;;;;;5069383;28;20047;-83
2022/02/20 06:06:53;;;;;;;12.50;8.23;;;2.70;95.60;;;;;;5070436;28;20040;-83
2022/02/20 06:09:18;;;;;;;13.73;8.68;;;2.80;95.50;;;;;;5070827;28;20488;-83
2022/02/20 06:11:44;;;;;;;16.08;8.50;;;2.70;95.50;;;;;;5072815;28;20028;-83
2022/02/20 06:14:09;;;;;;;13.45;8.07;;;2.80;95.60;;;;;;5071208;28;20075;-83
2022/02/20 06:16:35;;;;;;;12.73;8.73;;;2.80;95.50;;;;;;5078541;28;20024;-84
2022/02/20 06:19:00;;;;;;;13.23;8.05;;;2.70;95.50;;;;;;5070824;28;20542;-83
2022/02/20 06:21:26;;;;;;;13.75;8.38;;;2.70;95.40;;;;;;5069845;28;20039;-83
2022/02/20 06:23:51;;;;;;;14.90;7.35;;;2.80;95.40;;;;;;5071554;28;20032;-84
2022/02/20 06:26:17;;;;;;;12.57;7.65;;;2.80;95.40;;;;;;5066787;28;20495;-83
2022/02/20 06:28:42;;;;;;;13.75;7.72;;;2.70;95.40;;;;;;5067527;28;20032;-83
2022/02/20 06:31:08;;;;;;;13.90;7.40;;;2.80;95.40;;;;;;5070969;28;20067;-83
2022/02/20 06:33:33;;;;;;;12.98;7.72;;;2.70;95.40;;;;;;5075893;28;20078;-83
2022/02/20 06:35:59;;;;;;;11.50;6.68;;;2.80;95.40;;;;;;5070987;28;20372;-83
2022/02/20 06:38:24;;;;;;;10.95;6.50;;;2.70;95.30;;;;;;5071893;28;20557;-83
2022/02/20 06:40:50;;;;;;;12.48;6.85;;;2.70;95.20;;;;;;5070177;28;20035;-83
2022/02/20 06:43:15;;;;;;;13.82;7.00;;;2.70;95.20;;;;;;5070986;28;20031;-83
2022/02/20 06:45:41;;;;;;;15.07;7.60;;;2.70;95.20;;;;;;5070956;28;20032;-83
2022/02/20 06:48:06;;;;;;;12.73;6.63;;;2.70;95.10;;;;;;5070104;28;20041;-83
2022/02/20 06:50:32;;;;;;;10.50;7.10;;;2.70;95.10;;;;;;5069052;28;20032;-83
2022/02/20 06:52:58;;;;;;;10.57;6.53;;;2.70;95.00;;;;;;5070590;28;20504;-83
2022/02/20 06:55:24;;;;;;;11.13;6.50;;;2.70;95.00;;;;;;5064028;28;20017;-83
2022/02/20 06:57:50;;;;;;;9.85;6.07;;;2.70;94.80;;;;;;5077974;28;20036;-83
2022/02/20 07:00:17;;;;;;;12.75;6.47;;;2.70;94.80;;;;;;5070159;28;20138;-83
2022/02/20 07:02:43;;;;;;;9.38;5.78;;;2.60;94.50;;;;;;5070159;28;20025;-83
2022/02/20 07:05:09;;;;;;;8.55;5.30;;;2.60;94.50;;;;;;5067465;28;20044;-83
2022/02/20 07:07:35;;;;;;;11.13;5.97;;;2.60;94.50;;;;;;5065059;28;20365;-83
2022/02/20 07:10:03;;;;;;;10.15;5.80;;;2.60;94.50;;;;;;5067882;28;20259;-84
2022/02/20 07:12:29;;;;;;;9.43;5.80;;;2.60;94.50;;;;;;5070095;28;20033;-83
2022/02/20 07:14:55;;;;;;;9.55;5.38;;;2.60;94.50;;;;;;5071364;28;20028;-83
2022/02/20 07:17:21;;;;;;;9.85;5.35;;;2.60;94.40;;;;;;5068930;28;20055;-83
2022/02/20 07:19:46;;;;;;;10.07;5.57;;;2.50;94.30;;;;;;5066395;28;20032;-83
2022/02/20 07:22:12;;;;;;;10.23;6.32;;;2.50;94.30;;;;;;5069636;28;20016;-84
2022/02/20 07:24:38;;;;;;;8.32;4.93;;;2.50;94.40;;;;;;5070459;28;20127;-83
2022/02/20 07:27:04;;;;;;;10.00;5.72;;;2.50;94.30;;;;;;5065305;28;20024;-83
2022/02/20 07:29:29;;;;;;;10.00;5.60;;;2.50;94.30;;;;;;5065664;28;20024;-83
2022/02/20 07:31:55;;;;;;;10.13;5.78;;;2.50;94.30;;;;;;5063334;28;20029;-83
2022/02/20 07:34:21;;;;;;;11.38;5.50;;;2.50;94.20;;;;;;5067545;28;20177;-84
2022/02/20 07:36:46;;;;;;;8.40;5.28;;;2.50;94.00;;;;;;5072540;28;20029;-84
2022/02/20 07:39:12;;;;;;;9.30;5.25;;;2.50;94.00;;;;;;5069360;28;20051;-83
2022/02/20 07:41:38;;;;;;;9.20;6.07;;;2.50;93.80;;;;;;5062478;28;20550;-83
2022/02/20 07:44:05;;;;;;;8.52;5.45;;;2.50;93.80;;;;;;5070807;28;20485;-84
2022/02/20 07:46:31;;;;;;;9.02;5.75;;;2.50;93.80;;;;;;5070219;28;20573;-85
2022/02/20 07:48:59;;;;;;;9.60;6.38;;;2.50;93.70;;;;;;5068858;28;20042;-85
2022/02/20 07:51:26;;;;;;;10.50;5.68;;;2.60;93.90;;;;;;5068773;28;20028;-85
2022/02/20 07:53:51;;;;;;;10.68;6.38;;;2.60;93.80;;;;;;5068551;28;20032;-85
2022/02/20 07:56:17;;;;;;;9.18;5.85;;;2.60;93.90;;;;;;5062696;28;20024;-86
2022/02/20 07:58:46;;;;;;;11.15;6.57;;;2.60;93.70;;;;;;5065926;28;20028;-85
2022/02/20 08:01:12;;;;;;;10.02;6.43;;;2.60;93.60;;;;;;5063755;28;20041;-85
2022/02/20 08:03:38;;;;;;;10.48;7.03;;;2.60;93.60;;;;;;5067664;28;20027;-86
2022/02/20 08:06:05;;;;;;;10.98;7.53;;;2.60;93.60;;;;;;5068764;28;20085;-86
2022/02/20 08:08:32;;;;;;;10.75;6.50;;;2.60;93.30;;;;;;5067210;28;20040;-86
2022/02/20 08:10:59;;;;;;;11.18;7.32;;;2.70;93.40;;;;;;5065363;28;20025;-85
2022/02/20 08:13:24;;;;;;;13.13;8.07;;;2.60;93.20;;;;;;5065588;28;20095;-86
2022/02/20 08:15:51;;;;;;;10.48;7.15;;;2.70;93.40;;;;;;5072940;28;20051;-86
2022/02/20 08:18:17;;;;;;;11.50;7.00;;;2.70;93.30;;;;;;5069843;28;20710;-86
2022/02/20 08:20:44;;;;;;;11.18;7.32;;;2.70;93.40;;;;;;5068122;28;20099;-86
2022/02/20 08:23:13;;;;;;;14.27;8.00;;;2.70;93.50;;;;;;5069674;28;20032;-85
2022/02/20 08:25:40;;;;;;;12.77;8.10;;;2.70;93.50;;;;;;5067131;28;20021;-85
2022/02/20 08:28:07;;;;;;;11.80;7.68;;;2.70;93.60;;;;;;5066549;28;20037;-86
2022/02/20 08:30:32;;;;;;;13.10;7.82;;;2.60;93.70;;;;;;5069869;28;20019;-85
2022/02/20 08:32:58;;;;;;;12.13;7.70;;;2.60;93.90;;;;;;5070789;28;20020;-86
2022/02/20 08:35:24;;;;;;;11.68;8.18;;;2.70;94.00;;;;;;5069520;28;20016;-85
2022/02/20 08:37:49;;;;;;;14.65;8.25;;;2.70;94.30;;;;;;5069699;28;20115;-86
2022/02/20 08:40:19;;;;;;;12.68;7.93;;;2.60;94.30;;;;;;5069313;28;20040;-86
2022/02/20 08:42:46;;;;;;;12.77;8.48;;;2.60;94.40;;;;;;5069791;28;20412;-85
2022/02/20 08:45:13;;;;;;;12.23;8.32;;;2.70;94.60;;;;;;5068760;28;20025;-86
2022/02/20 08:47:39;;;;;;;13.30;8.73;;;2.70;94.70;;;;;;5070150;28;20029;-85
2022/02/20 08:50:05;;;;;;;11.68;8.18;;;2.60;94.70;;;;;;5066985;28;20900;-85
2022/02/20 08:52:31;;;;;;;13.55;8.25;;;2.70;94.80;;;;;;5068822;28;20029;-85
2022/02/20 08:54:57;;;;;;;13.70;8.88;;;2.70;94.90;;;;;;5069942;28;20393;-85
2022/02/20 08:57:22;;;;;;;13.68;8.55;;;2.70;94.90;;;;;;5069296;28;20107;-84
2022/02/20 08:59:49;;;;;;;13.63;8.38;;;2.70;95.00;;;;;;5067148;28;20024;-85
2022/02/20 09:02:14;;;;;;;14.40;8.65;;;2.70;95.00;;;;;;5063344;28;20108;-86
2022/02/20 09:04:40;;;;;;;14.07;8.77;;;2.80;95.10;;;;;;5072006;28;20928;-86
2022/02/20 09:07:07;;;;;;;17.85;9.32;;;2.80;95.10;;;;;;5060811;28;20033;-86
2022/02/20 09:09:33;;;;;;;13.30;7.78;;;2.80;95.10;;;;;;5063931;28;20538;-86
2022/02/20 09:11:59;;;;;;;14.32;8.32;;;2.70;95.10;;;;;;5069087;28;20527;-86
2022/02/20 09:14:25;;;;;;;14.25;7.95;;;2.70;95.20;;;;;;5066109;28;20041;-85
2022/02/20 09:16:50;;;;;;;13.30;7.95;;;2.70;95.20;;;;;;5067547;28;20024;-85
2022/02/20 09:19:16;;;;;;;13.98;8.27;;;2.60;95.10;;;;;;5063020;28;20095;-85
2022/02/20 09:21:41;;;;;;;12.68;7.78;;;2.60;95.20;;;;;;5059994;28;20563;-85
2022/02/20 09:24:07;;;;;;;12.55;7.45;;;2.60;95.10;;;;;;5069565;28;20456;-85
2022/02/20 09:26:33;;;;;;;10.95;6.60;;;2.50;95.20;;;;;;5068546;28;20027;-85
2022/02/20 09:28:59;;;;;;;12.23;7.53;;;2.50;95.10;;;;;;5068231;28;20040;-86
2022/02/20 09:31:25;;;;;;;11.20;6.53;;;2.50;95.20;;;;;;5067386;28;20109;-85
2022/02/20 09:33:50;;;;;;;8.85;5.65;;;2.50;95.20;;;;;;5063984;28;20123;-86
2022/02/20 09:36:16;;;;;;;11.57;6.65;;;2.40;95.20;;;;;;5066882;28;20020;-86
2022/02/20 09:38:42;;;;;;;8.93;6.00;;;2.50;95.30;;;;;;5063413;28;20036;-85
2022/02/20 09:41:09;;;;;;;8.82;5.82;;;2.40;95.20;;;;;;5062885;28;20488;-85
2022/02/20 09:43:36;;;;;;;9.88;5.97;;;2.40;95.30;;;;;;5059746;28;20029;-85
2022/02/20 09:46:03;;;;;;;7.25;4.65;;;2.30;95.20;;;;;;5065917;28;20064;-85
2022/02/20 09:48:29;;;;;;;9.95;5.57;;;2.30;95.40;;;;;;5061339;28;20456;-85
2022/02/20 09:50:55;;;;;;;9.43;5.53;;;2.40;95.40;;;;;;5065720;28;20029;-85
2022/02/20 09:53:20;;;;;;;8.07;4.93;;;2.30;95.50;;;;;;5064320;28;20044;-85
2022/02/20 09:55:48;;;;;;;8.48;5.18;;;2.30;95.50;;;;;;5069271;28;20035;-85
2022/02/20 09:58:15;;;;;;;9.70;5.30;;;2.30;95.60;;;;;;5069951;28;20035;-85
2022/02/20 10:01:09;;;;;;;8.13;5.13;;;2.30;95.60;;;;;;5069030;28;20024;-85
2022/02/20 10:03:37;;;;;;;9.45;5.97;;;2.40;95.70;;;;;;5067835;28;20085;-85
2022/02/20 10:06:06;;;;;;;9.18;5.55;;;2.40;95.70;;;;;;5062331;28;20040;-85
2022/02/20 10:09:07;;;;;;;8.23;5.28;;;2.40;95.70;;;;;;5060754;28;20087;-85
2022/02/20 10:11:32;;;;;;;9.18;5.03;;;2.50;95.90;;;;;;5029122;28;20033;-85
2022/02/20 10:14:04;;;;;;;9.43;5.72;;;2.50;95.80;;;;;;5059439;28;20085;-85
2022/02/20 10:16:31;;;;;;;9.93;5.72;;;2.60;95.90;;;;;;5073109;28;20452;-85
2022/02/20 10:18:59;;;;;;;10.73;5.40;;;2.60;96.00;;;;;;5068980;28;20035;-85
2022/02/20 10:21:33;;;;;;;8.13;5.20;;;2.70;95.90;;;;;;5067042;28;20064;-85
2022/02/20 10:24:13;;;;;;;9.75;5.78;;;2.80;96.00;;;;;;5071529;28;20056;-85
2022/02/20 10:26:47;;;;;;;8.27;5.30;;;2.80;96.00;;;;;;5064580;28;20024;-85
2022/02/20 10:29:19;;;;;;;10.48;5.93;;;2.90;96.10;;;;;;5070175;28;20028;-85
2022/02/20 10:31:54;;;;;;;11.30;6.07;;;3.00;96.10;;;;;;5066447;28;20167;-85
2022/02/20 10:34:29;;;;;;;12.30;6.05;;;3.10;96.10;;;;;;5059174;28;20024;-85
2022/02/20 10:36:59;;;;;;;10.43;6.45;;;3.10;96.10;;;;;;5067707;28;20028;-85
2022/02/20 10:39:40;;;;;;;11.35;6.40;;;3.20;96.10;;;;;;5070213;28;20423;-85
2022/02/20 10:42:18;;;;;;;11.15;7.03;;;3.30;96.20;;;;;;5059774;28;20021;-87
2022/02/20 10:44:51;;;;;;;13.52;6.30;;;3.30;96.20;;;;;;5083578;28;20020;-87
2022/02/20 10:47:17;;;;;;;9.73;6.25;;;3.40;96.30;;;;;;5069034;28;20021;-85
2022/02/20 10:49:42;;;;;;;15.60;6.50;;;3.50;96.30;;;;;;5064089;28;20035;-85
2022/02/20 10:52:27;;;;;;;11.77;6.43;;;3.70;96.70;;;;;;5065891;28;20062;-85
2022/02/20 10:55:19;;;;;;;12.02;6.65;;;3.80;96.40;;;;;;5071532;28;20021;-85
2022/02/20 10:57:45;;;;;;;12.82;7.15;;;4.00;96.40;;;;;;5067884;28;20044;-85
2022/02/20 11:00:20;;;;;;;12.30;6.75;;;4.10;96.40;;;;;;5070976;28;20433;-86
2022/02/20 11:02:45;;;;;;;12.75;6.82;;;4.10;96.30;;;;;;5078909;28;20032;-85
2022/02/20 11:05:14;;;;;;;12.43;6.90;;;4.10;96.30;;;;;;5080652;28;20420;-86
2022/02/20 11:07:40;;;;;;;12.07;5.78;;;4.20;96.40;;;;;;5067211;28;20044;-87
2022/02/20 11:10:08;;;;;;;9.88;6.93;;;4.30;96.50;;;;;;5068745;28;20107;-86
2022/02/20 11:12:35;;;;;;;10.40;7.07;;;4.40;96.50;;;;;;5070601;28;20020;-85
2022/02/20 11:15:03;;;;;;;12.70;7.07;;;4.50;96.50;;;;;;5066420;28;20037;-85
2022/02/20 11:17:29;;;;;;;14.63;6.65;;;4.60;96.50;;;;;;5070848;28;20484;-85
2022/02/20 11:19:57;;;;;;;11.60;6.95;;;4.70;96.50;;;;;;5067771;28;20090;-85
2022/02/20 11:22:25;;;;;;;9.90;5.90;;;4.80;96.50;;;;;;5061886;28;20035;-85
2022/02/20 11:24:51;;;;;;;11.77;7.53;;;4.80;96.50;;;;;;5066649;28;20044;-85
2022/02/20 11:27:18;;;;;;;10.57;6.35;;;4.90;96.50;;;;;;5071404;28;20031;-85
2022/02/20 11:29:45;;;;;;;10.35;5.63;;;5.00;96.60;;;;;;5071340;28;20036;-85
2022/02/20 11:32:11;;;;;;;10.20;6.68;;;5.00;96.50;;;;;;5067869;28;20024;-85
2022/02/20 11:34:43;;;;;;;10.02;6.82;;;5.00;96.50;;;;;;5064648;28;20025;-85
2022/02/20 11:37:09;;;;;;;14.65;6.35;;;5.10;96.50;;;;;;5067721;28;20027;-85
2022/02/20 11:39:36;;;;;;;11.25;7.10;;;5.20;96.60;;;;;;5068892;28;20452;-85
2022/02/20 11:42:10;;;;;;;10.93;6.88;;;5.30;96.60;;;;;;5066888;28;20033;-85
2022/02/20 11:44:46;;;;;;;10.00;7.07;;;5.40;96.60;;;;;;5069983;28;20098;-85
2022/02/20 11:47:34;;;;;;;11.80;6.80;;;5.40;96.60;;;;;;5083497;28;20195;-84
2022/02/20 11:50:15;;;;;;;11.77;6.28;;;5.50;96.70;;;;;;5065766;28;20024;-84
2022/02/20 11:52:54;;;;;;;13.38;6.95;;;5.60;96.80;;;;;;5069458;28;20031;-85
2022/02/20 11:55:30;;;;;;;11.27;7.10;;;5.70;96.70;;;;;;5070699;28;20024;-85
2022/02/20 11:58:11;;;;;;;11.80;6.53;;;5.70;96.70;;;;;;5079413;28;20029;-85
2022/02/20 12:00:38;;;;;;;10.85;7.00;;;5.70;96.70;;;;;;5068507;28;20024;-85
2022/02/20 12:03:19;;;;;;;11.32;6.53;;;5.80;96.80;;;;;;5061762;28;20139;-85
2022/02/20 12:06:10;;;;;;;14.63;6.80;;;5.90;96.90;;;;;;5064384;28;20052;-85
2022/02/20 12:08:41;;;;;;;13.15;7.30;;;5.90;96.90;;;;;;5069751;28;20036;-85
2022/02/20 12:11:24;;;;;;;12.02;7.22;;;6.00;96.90;;;;;;5068015;28;20056;-85
2022/02/20 12:13:58;;;;;;;11.25;6.75;;;6.10;96.90;;;;;;5072319;28;20028;-85
2022/02/20 12:16:37;;;;;;;12.07;6.97;;;6.20;96.90;;;;;;5066980;28;20031;-85
2022/02/20 12:19:21;;;;;;;13.57;7.03;;;6.20;96.90;;;;;;5069429;28;20031;-85
2022/02/20 12:22:02;;;;;;;9.25;6.70;;;6.30;96.90;;;;;;5067286;28;20111;-85
2022/02/20 12:25:07;;;;;;;11.98;6.35;;;6.40;96.90;;;;;;5063089;28;20051;-85
2022/02/20 12:27:42;;;;;;;9.98;5.63;;;6.50;96.90;;;;;;5028478;28;20041;-85
2022/02/20 12:30:14;;;;;;;14.38;7.03;;;6.60;96.90;;;;;;5013931;28;20028;-85
2022/02/20 12:32:41;;;;;;;6.50;4.65;;;6.70;97.00;;;;;;5042219;28;20063;-84
2022/02/20 12:35:20;;;;;;;13.90;6.15;;;6.80;96.90;;;;;;5057040;28;20021;-85
2022/02/20 12:37:50;;;;;;;11.95;6.53;;;6.90;96.90;;;;;;5050386;28;20029;-84
2022/02/20 12:40:34;;;;;;;12.05;6.40;;;7.00;96.90;;;;;;5067958;28;20127;-85
2022/02/20 12:43:03;;;;;;;16.73;5.95;;;7.10;96.90;;;;;;5069689;28;20040;-85
2022/02/20 12:45:31;;;;;;;11.68;6.10;;;7.10;96.90;;;;;;5068682;28;20431;-85
2022/02/20 12:48:03;;;;;;;9.45;5.45;;;7.20;96.90;;;;;;5057752;28;20036;-84
2022/02/20 12:50:34;;;;;;;12.15;5.70;;;7.30;96.90;;;;;;5066815;28;20476;-85